Station Historical Data
Daily Summary for May 16, 2012 Units:  English    Metric   Both
« Previous Day
Next Day »
Daily Weekly Monthly Yearly Custom
  High: Low: Average:
Temperature: 81.6 °F 56.5 °F 69.6 °F
Dew Point: 63.6 °F 52.3 °F 57 °F
Humidity: 94% 37% 68%
Wind Speed: 8.0mph 0.0mph 1.6mph
Wind Gust: 11.0mph - -
Wind- - WNW
Pressure: 30.00 in 29.90 in -
Precipitation: 0.00 in    
Historical Graphs
 
 
Tabular Data for May 16, 2012
Time Temperature Dew Point Pressure Wind Wind Speed Wind Gust Humidity Rainfall Rate (Hourly) Conditions
00:00 60.5 °F 57.6 °F 29.98 in Calm     90% 0.00 in
00:01 60.6 °F 57.7 °F 29.98 in NNW 1.0 mph 1.0 mph 90% 0.00 in
00:06 60.3 °F 58.0 °F 29.97 in Calm   1.0 mph 92% 0.00 in
00:12 60.7 °F 58.4 °F 29.97 in Calm   1.0 mph 92% 0.00 in
00:17 60.8 °F 58.2 °F 29.97 in Calm   1.0 mph 91% 0.00 in
00:22 60.8 °F 58.2 °F 29.97 in Calm     91% 0.00 in
00:27 60.8 °F 57.8 °F 29.97 in Calm     90% 0.00 in
00:32 60.8 °F 58.2 °F 29.97 in Calm     91% 0.00 in
00:37 61.0 °F 58.0 °F 29.97 in Calm     90% 0.00 in
00:42 61.1 °F 58.2 °F 29.97 in Calm     90% 0.00 in
00:47 61.2 °F 57.9 °F 29.97 in Calm     89% 0.00 in
00:52 61.2 °F 57.9 °F 29.97 in Calm     89% 0.00 in
00:57 61.3 °F 58.0 °F 29.97 in Calm     89% 0.00 in
01:02 61.1 °F 57.5 °F 29.97 in Calm     88% 0.00 in
01:07 60.7 °F 57.4 °F 29.97 in Calm     89% 0.00 in
01:12 60.3 °F 57.0 °F 29.97 in Calm     89% 0.00 in
01:17 60.0 °F 57.1 °F 29.97 in Calm     90% 0.00 in
01:22 59.9 °F 57.3 °F 29.97 in Calm     91% 0.00 in
01:27 59.8 °F 57.2 °F 29.97 in Calm     91% 0.00 in
01:32 59.7 °F 57.1 °F 29.97 in Calm     91% 0.00 in
01:37 59.9 °F 57.3 °F 29.97 in Calm     91% 0.00 in
01:42 60.3 °F 57.7 °F 29.96 in Calm     91% 0.00 in
01:47 60.2 °F 57.3 °F 29.97 in Calm     90% 0.00 in
01:52 59.7 °F 57.1 °F 29.97 in NNW 1.0 mph 1.0 mph 91% 0.00 in
01:57 59.3 °F 57.0 °F 29.97 in Calm     92% 0.00 in
02:02 59.1 °F 56.8 °F 29.97 in Calm     92% 0.00 in
02:07 59.0 °F 56.7 °F 29.97 in NNW 1.0 mph 1.0 mph 92% 0.00 in
02:12 58.7 °F 56.7 °F 29.97 in Calm   1.0 mph 93% 0.00 in
02:17 58.6 °F 56.6 °F 29.97 in Calm     93% 0.00 in
02:22 58.5 °F 56.5 °F 29.96 in Calm     93% 0.00 in
02:27 58.4 °F 56.4 °F 29.97 in Calm     93% 0.00 in
02:32 58.4 °F 56.4 °F 29.96 in Calm     93% 0.00 in
02:37 58.3 °F 56.3 °F 29.96 in Calm     93% 0.00 in
02:42 58.4 °F 56.4 °F 29.96 in Calm     93% 0.00 in
02:47 58.4 °F 56.4 °F 29.96 in Calm     93% 0.00 in
02:52 58.1 °F 56.1 °F 29.96 in Calm     93% 0.00 in
02:57 58.0 °F 56.0 °F 29.96 in Calm     93% 0.00 in
03:02 58.0 °F 56.3 °F 29.96 in Calm     94% 0.00 in
03:07 58.0 °F 56.3 °F 29.96 in Calm     94% 0.00 in
03:12 58.0 °F 56.3 °F 29.96 in Calm     94% 0.00 in
03:17 57.9 °F 55.9 °F 29.96 in Calm     93% 0.00 in
03:22 57.9 °F 56.2 °F 29.96 in Calm     94% 0.00 in
03:28 58.4 °F 56.7 °F 29.96 in NNW 1.0 mph 1.0 mph 94% 0.00 in
03:33 58.9 °F 57.2 °F 29.96 in Calm   1.0 mph 94% 0.00 in
03:38 59.3 °F 57.3 °F 29.96 in Calm     93% 0.00 in
03:43 59.5 °F 57.2 °F 29.96 in Calm     92% 0.00 in
03:48 59.7 °F 57.4 °F 29.96 in Calm     92% 0.00 in
03:53 59.9 °F 57.3 °F 29.96 in Calm     91% 0.00 in
03:58 60.0 °F 57.4 °F 29.96 in Calm   1.0 mph 91% 0.00 in
04:03 60.2 °F 57.3 °F 29.96 in NNW 1.0 mph 1.0 mph 90% 0.00 in
04:08 60.5 °F 57.2 °F 29.96 in Calm   1.0 mph 89% 0.00 in
04:13 60.3 °F 57.0 °F 29.96 in Calm   1.0 mph 89% 0.00 in
04:18 60.0 °F 56.8 °F 29.96 in Calm     89% 0.00 in
04:23 60.2 °F 57.3 °F 29.96 in Calm   1.0 mph 90% 0.00 in
04:28 60.4 °F 57.2 °F 29.96 in Calm   1.0 mph 89% 0.00 in
04:33 60.7 °F 57.1 °F 29.96 in Calm   1.0 mph 88% 0.00 in
04:38 60.7 °F 56.8 °F 29.96 in Calm     87% 0.00 in
04:43 60.5 °F 56.6 °F 29.97 in Calm     87% 0.00 in
04:48 60.1 °F 56.5 °F 29.96 in Calm   1.0 mph 88% 0.00 in
04:53 59.5 °F 56.3 °F 29.96 in Calm     89% 0.00 in
04:58 59.2 °F 56.0 °F 29.96 in Calm     89% 0.00 in
05:03 58.8 °F 55.9 °F 29.96 in Calm     90% 0.00 in
05:08 58.4 °F 55.5 °F 29.96 in Calm     90% 0.00 in
05:13 58.0 °F 55.4 °F 29.96 in Calm     91% 0.00 in
05:18 58.0 °F 55.7 °F 29.96 in Calm     92% 0.00 in
05:23 57.9 °F 55.6 °F 29.96 in Calm     92% 0.00 in
05:28 57.8 °F 55.5 °F 29.96 in Calm     92% 0.00 in
05:33 57.6 °F 55.3 °F 29.97 in Calm     92% 0.00 in
05:38 57.5 °F 55.2 °F 29.97 in Calm     92% 0.00 in
05:44 57.5 °F 55.2 °F 29.97 in Calm     92% 0.00 in
05:49 57.6 °F 55.6 °F 29.97 in Calm   1.0 mph 93% 0.00 in
05:54 57.8 °F 55.8 °F 29.97 in Calm     93% 0.00 in
05:59 57.9 °F 55.9 °F 29.97 in Calm     93% 0.00 in
06:04 58.1 °F 55.8 °F 29.97 in Calm     92% 0.00 in
06:09 58.2 °F 55.9 °F 29.97 in Calm     92% 0.00 in
06:14 58.0 °F 55.7 °F 29.97 in Calm     92% 0.00 in
06:19 57.7 °F 55.1 °F 29.97 in Calm     91% 0.00 in
06:25 57.3 °F 55.0 °F 29.97 in Calm     92% 0.00 in
06:30 57.0 °F 54.7 °F 29.97 in Calm     92% 0.00 in
06:35 56.6 °F 54.3 °F 29.97 in Calm     92% 0.00 in
06:40 56.7 °F 54.7 °F 29.97 in Calm     93% 0.00 in
06:45 56.9 °F 54.9 °F 29.97 in Calm     93% 0.00 in
06:50 56.9 °F 54.9 °F 29.97 in Calm     93% 0.00 in
06:55 56.7 °F 54.7 °F 29.97 in Calm     93% 0.00 in
07:00 56.5 °F 54.5 °F 29.98 in Calm     93% 0.00 in
07:05 56.6 °F 54.6 °F 29.98 in Calm     93% 0.00 in
07:10 57.2 °F 55.5 °F 29.98 in Calm     94% 0.00 in
07:15 57.6 °F 55.6 °F 29.98 in Calm     93% 0.00 in
07:20 58.3 °F 56.3 °F 29.98 in Calm     93% 0.00 in
07:25 59.1 °F 56.8 °F 29.98 in Calm     92% 0.00 in
07:30 59.8 °F 57.2 °F 29.98 in Calm     91% 0.00 in
07:35 60.3 °F 57.4 °F 29.99 in Calm     90% 0.00 in
07:40 60.1 °F 57.2 °F 29.99 in Calm     90% 0.00 in
07:45 60.5 °F 57.9 °F 29.99 in Calm     91% 0.00 in
07:51 61.2 °F 58.6 °F 29.99 in Calm     91% 0.00 in
07:56 62.2 °F 59.2 °F 29.99 in Calm     90% 0.00 in
08:01 63.1 °F 59.5 °F 29.99 in Calm     88% 0.00 in
08:06 63.5 °F 60.2 °F 29.99 in Calm     89% 0.00 in
08:11 63.4 °F 58.8 °F 29.99 in Calm     85% 0.00 in
08:16 63.7 °F 59.8 °F 29.99 in Calm     87% 0.00 in
08:21 63.7 °F 59.8 °F 29.99 in Calm     87% 0.00 in
08:26 64.2 °F 60.6 °F 29.99 in Calm     88% 0.00 in
08:31 64.9 °F 60.9 °F 29.99 in Calm     87% 0.00 in
08:36 65.5 °F 61.2 °F 29.99 in Calm     86% 0.00 in
08:41 66.1 °F 60.8 °F 29.99 in Calm     83% 0.00 in
08:46 66.7 °F 61.0 °F 29.99 in NW 1.0 mph 2.0 mph 82% 0.00 in
08:52 67.3 °F 61.3 °F 29.99 in Calm   1.0 mph 81% 0.00 in
08:57 67.9 °F 61.5 °F 29.99 in Calm   2.0 mph 80% 0.00 in
09:02 68.4 °F 62.0 °F 29.99 in Calm   1.0 mph 80% 0.00 in
09:07 69.1 °F 62.0 °F 29.99 in WNW 1.0 mph 2.0 mph 78% 0.00 in
09:12 69.7 °F 61.8 °F 29.99 in NW 1.0 mph 2.0 mph 76% 0.00 in
09:17 70.2 °F 62.7 °F 30.00 in WNW 2.0 mph 2.0 mph 77% 0.00 in
09:22 70.5 °F 61.8 °F 29.99 in NW 3.0 mph 3.0 mph 74% 0.00 in
09:27 70.9 °F 61.8 °F 29.99 in WNW 3.0 mph 3.0 mph 73% 0.00 in
09:32 71.1 °F 62.4 °F 29.99 in WNW 3.0 mph 4.0 mph 74% 0.00 in
09:37 71.4 °F 62.3 °F 29.99 in WNW 3.0 mph 4.0 mph 73% 0.00 in
09:42 71.7 °F 61.4 °F 29.99 in WNW 3.0 mph 5.0 mph 70% 0.00 in
09:47 71.9 °F 62.0 °F 29.99 in WNW 3.0 mph 4.0 mph 71% 0.00 in
09:52 72.1 °F 62.2 °F 29.99 in WNW 3.0 mph 4.0 mph 71% 0.00 in
09:57 72.4 °F 61.7 °F 29.99 in WNW 3.0 mph 4.0 mph 69% 0.00 in
10:02 72.6 °F 61.4 °F 29.99 in WNW 3.0 mph 4.0 mph 68% 0.00 in
10:07 72.7 °F 61.1 °F 29.99 in WNW 5.0 mph 5.0 mph 67% 0.00 in
10:12 72.8 °F 60.8 °F 29.99 in NW 3.0 mph 6.0 mph 66% 0.00 in
10:17 73.0 °F 61.0 °F 29.99 in WNW 4.0 mph 5.0 mph 66% 0.00 in
10:22 73.2 °F 60.7 °F 29.99 in WNW 4.0 mph 6.0 mph 65% 0.00 in
10:28 73.4 °F 60.0 °F 29.99 in WNW 4.0 mph 7.0 mph 63% 0.00 in
10:33 73.7 °F 61.2 °F 29.99 in NW 3.0 mph 5.0 mph 65% 0.00 in
10:38 74.0 °F 60.2 °F 29.99 in WNW 2.0 mph 6.0 mph 62% 0.00 in
10:43 74.3 °F 60.9 °F 29.99 in WNW 2.0 mph 5.0 mph 63% 0.00 in
10:48 74.7 °F 61.3 °F 29.99 in WNW 3.0 mph 5.0 mph 63% 0.00 in
10:53 75.0 °F 61.6 °F 29.99 in WNW 4.0 mph 4.0 mph 63% 0.00 in
10:58 75.1 °F 60.3 °F 29.99 in WNW 4.0 mph 5.0 mph 60% 0.00 in
11:03 75.2 °F 60.8 °F 29.99 in NW 1.0 mph 4.0 mph 61% 0.00 in
11:08 75.5 °F 61.1 °F 29.99 in West 3.0 mph 5.0 mph 61% 0.00 in
11:13 75.7 °F 60.8 °F 29.99 in NW 4.0 mph 6.0 mph 60% 0.00 in
11:18 76.0 °F 62.0 °F 30.00 in West 5.0 mph 5.0 mph 62% 0.00 in
11:23 76.3 °F 62.8 °F 30.00 in NW 3.0 mph 6.0 mph 63% 0.00 in
11:28 76.2 °F 62.7 °F 29.99 in WNW 2.0 mph 6.0 mph 63% 0.00 in
11:33 76.4 °F 62.9 °F 30.00 in WSW 5.0 mph 5.0 mph 63% 0.00 in
11:38 76.7 °F 63.6 °F 30.00 in WNW 3.0 mph 7.0 mph 64% 0.00 in
11:43 77.1 °F 63.5 °F 29.99 in West 5.0 mph 7.0 mph 63% 0.00 in
11:48 76.6 °F 59.8 °F 30.00 in NW 1.0 mph 6.0 mph 56% 0.00 in
11:53 77.1 °F 61.7 °F 29.99 in SSE 1.0 mph 2.0 mph 59% 0.00 in
11:58 77.6 °F 60.2 °F 29.99 in NNW 4.0 mph 5.0 mph 55% 0.00 in
12:03 78.0 °F 60.5 °F 29.99 in WNW 7.0 mph 7.0 mph 55% 0.00 in
12:08 78.2 °F 59.7 °F 29.99 in West 5.0 mph 6.0 mph 53% 0.00 in
12:13 78.5 °F 57.2 °F 29.99 in NNE 2.0 mph 5.0 mph 48% 0.00 in
12:18 78.8 °F 56.9 °F 29.99 in NW 5.0 mph 7.0 mph 47% 0.00 in
12:23 78.4 °F 54.7 °F 29.99 in WNW 5.0 mph 7.0 mph 44% 0.00 in
12:28 78.5 °F 53.5 °F 29.99 in NNW 2.0 mph 5.0 mph 42% 0.00 in
12:33 78.9 °F 55.2 °F 29.99 in Calm   3.0 mph 44% 0.00 in
12:38 79.2 °F 55.4 °F 29.99 in SW 3.0 mph 7.0 mph 44% 0.00 in
12:43 78.8 °F 56.3 °F 29.99 in West 4.0 mph 5.0 mph 46% 0.00 in
12:49 79.0 °F 57.1 °F 29.98 in NW 5.0 mph 8.0 mph 47% 0.00 in
12:54 78.6 °F 56.1 °F 29.98 in WSW 1.0 mph 5.0 mph 46% 0.00 in
12:59 78.0 °F 58.4 °F 29.99 in NW 5.0 mph 8.0 mph 51% 0.00 in
13:04 77.2 °F 58.2 °F 29.98 in WNW 5.0 mph 5.0 mph 52% 0.00 in
13:09 77.7 °F 57.0 °F 29.98 in WNW 2.0 mph 8.0 mph 49% 0.00 in
13:14 78.5 °F 57.2 °F 29.98 in NE 5.0 mph 5.0 mph 48% 0.00 in
13:19 79.1 °F 54.7 °F 29.98 in NNE 3.0 mph 5.0 mph 43% 0.00 in
13:24 79.4 °F 53.7 °F 29.98 in NW 2.0 mph 6.0 mph 41% 0.00 in
13:29 79.2 °F 53.5 °F 29.98 in NNW 3.0 mph 3.0 mph 41% 0.00 in
13:34 79.4 °F 53.0 °F 29.97 in WNW 3.0 mph 5.0 mph 40% 0.00 in
13:39 79.2 °F 53.5 °F 29.97 in SW 4.0 mph 4.0 mph 41% 0.00 in
13:44 80.0 °F 56.2 °F 29.97 in West 3.0 mph 4.0 mph 44% 0.00 in
13:50 80.2 °F 53.7 °F 29.97 in WSW 4.0 mph 4.0 mph 40% 0.00 in
13:55 79.8 °F 54.7 °F 29.96 in WSW 3.0 mph 6.0 mph 42% 0.00 in
14:00 80.0 °F 55.5 °F 29.96 in SW 8.0 mph 8.0 mph 43% 0.00 in
14:05 80.3 °F 55.1 °F 29.96 in West 1.0 mph 5.0 mph 42% 0.00 in
14:10 79.6 °F 53.8 °F 29.95 in WNW 7.0 mph 11.0 mph 41% 0.00 in
14:15 78.4 °F 54.1 °F 29.96 in WNW 4.0 mph 7.0 mph 43% 0.00 in
14:20 78.0 °F 56.2 °F 29.95 in NW 2.0 mph 6.0 mph 47% 0.00 in
14:25 79.2 °F 54.2 °F 29.95 in North 1.0 mph 4.0 mph 42% 0.00 in
14:30 79.7 °F 55.2 °F 29.95 in SW 3.0 mph 8.0 mph 43% 0.00 in
14:35 80.5 °F 54.0 °F 29.95 in West 6.0 mph 6.0 mph 40% 0.00 in
14:40 79.4 °F 55.0 °F 29.95 in WNW 4.0 mph 7.0 mph 43% 0.00 in
14:41 79.3 °F 56.1 °F 29.95 in WNW 5.0 mph 7.0 mph 45% 0.00 in
14:46 78.8 °F 55.1 °F 29.95 in West 4.0 mph 4.0 mph 44% 0.00 in
14:51 79.4 °F 56.2 °F 29.95 in West 6.0 mph 7.0 mph 45% 0.00 in
14:56 80.0 °F 55.5 °F 29.95 in SW 4.0 mph 7.0 mph 43% 0.00 in
15:01 79.9 °F 53.5 °F 29.94 in SW 4.0 mph 6.0 mph 40% 0.00 in
15:06 79.6 °F 53.8 °F 29.94 in West 3.0 mph 3.0 mph 41% 0.00 in
15:11 79.2 °F 55.4 °F 29.94 in NNW 3.0 mph 4.0 mph 44% 0.00 in
15:16 78.6 °F 56.7 °F 29.94 in West 2.0 mph 6.0 mph 47% 0.00 in
15:21 78.1 °F 55.7 °F 29.94 in West 2.0 mph 4.0 mph 46% 0.00 in
15:26 78.8 °F 55.7 °F 29.94 in NW 3.0 mph 4.0 mph 45% 0.00 in
15:31 79.3 °F 53.6 °F 29.94 in NW 7.0 mph 9.0 mph 41% 0.00 in
15:36 80.2 °F 55.0 °F 29.94 in WNW 6.0 mph 6.0 mph 42% 0.00 in
15:41 80.7 °F 55.5 °F 29.93 in NNW 4.0 mph 6.0 mph 42% 0.00 in
15:47 80.8 °F 55.6 °F 29.93 in WNW 5.0 mph 6.0 mph 42% 0.00 in
15:52 80.6 °F 56.7 °F 29.93 in West 5.0 mph 8.0 mph 44% 0.00 in
15:57 80.5 °F 53.3 °F 29.93 in NW 4.0 mph 8.0 mph 39% 0.00 in
16:02 80.3 °F 53.8 °F 29.92 in NW 2.0 mph 3.0 mph 40% 0.00 in
16:07 80.1 °F 53.6 °F 29.92 in SW 2.0 mph 9.0 mph 40% 0.00 in
16:12 80.5 °F 52.6 °F 29.92 in West 3.0 mph 9.0 mph 38% 0.00 in
16:17 80.8 °F 52.8 °F 29.92 in WSW 1.0 mph 4.0 mph 38% 0.00 in
16:22 80.8 °F 52.8 °F 29.92 in WNW 3.0 mph 8.0 mph 38% 0.00 in
16:27 81.0 °F 56.4 °F 29.91 in NW 4.0 mph 5.0 mph 43% 0.00 in
16:32 80.9 °F 53.7 °F 29.91 in WNW 4.0 mph 5.0 mph 39% 0.00 in
16:37 80.2 °F 54.4 °F 29.91 in SW 4.0 mph 6.0 mph 41% 0.00 in
16:42 80.1 °F 55.6 °F 29.91 in WNW 4.0 mph 5.0 mph 43% 0.00 in
16:47 80.8 °F 54.2 °F 29.91 in NW 2.0 mph 4.0 mph 40% 0.00 in
16:52 81.0 °F 52.3 °F 29.91 in WSW 2.0 mph 8.0 mph 37% 0.00 in
16:57 80.9 °F 53.7 °F 29.91 in NW 2.0 mph 7.0 mph 39% 0.00 in
17:02 80.9 °F 54.3 °F 29.90 in West 2.0 mph 6.0 mph 40% 0.00 in
17:07 81.3 °F 54.0 °F 29.90 in West 3.0 mph 5.0 mph 39% 0.00 in
17:12 81.6 °F 53.6 °F 29.90 in NW 4.0 mph 8.0 mph 38% 0.00 in
17:17 81.3 °F 54.7 °F 29.90 in NW 5.0 mph 6.0 mph 40% 0.00 in
17:22 81.0 °F 53.7 °F 29.90 in North 6.0 mph 6.0 mph 39% 0.00 in
17:27 81.4 °F 55.5 °F 29.90 in SW 2.0 mph 5.0 mph 41% 0.00 in
17:32 81.4 °F 53.4 °F 29.90 in WNW 2.0 mph 6.0 mph 38% 0.00 in
17:37 81.3 °F 54.7 °F 29.90 in WNW 6.0 mph 6.0 mph 40% 0.00 in
17:42 80.3 °F 53.1 °F 29.90 in WNW 3.0 mph 8.0 mph 39% 0.00 in
17:47 79.8 °F 52.7 °F 29.90 in NW 3.0 mph 6.0 mph 39% 0.00 in
17:52 80.2 °F 54.4 °F 29.90 in WNW 2.0 mph 5.0 mph 41% 0.00 in
17:57 80.7 °F 54.2 °F 29.90 in NW 4.0 mph 5.0 mph 40% 0.00 in
18:03 80.7 °F 52.8 °F 29.90 in WNW 4.0 mph 5.0 mph 38% 0.00 in
18:08 80.9 °F 55.7 °F 29.90 in WNW 3.0 mph 4.0 mph 42% 0.00 in
18:13 80.8 °F 54.9 °F 29.90 in WNW 3.0 mph 4.0 mph 41% 0.00 in
18:18 80.8 °F 53.6 °F 29.90 in WNW 5.0 mph 6.0 mph 39% 0.00 in
18:23 80.6 °F 54.8 °F 29.90 in West 5.0 mph 7.0 mph 41% 0.00 in
18:28 80.2 °F 53.7 °F 29.90 in WNW 6.0 mph 8.0 mph 40% 0.00 in
18:33 80.1 °F 55.0 °F 29.90 in WNW 5.0 mph 8.0 mph 42% 0.00 in
18:38 80.0 °F 54.2 °F 29.90 in NW 3.0 mph 6.0 mph 41% 0.00 in
18:43 80.0 °F 54.9 °F 29.90 in WNW 2.0 mph 5.0 mph 42% 0.00 in
18:48 79.9 °F 55.4 °F 29.90 in WNW 4.0 mph 5.0 mph 43% 0.00 in
18:53 79.9 °F 54.8 °F 29.90 in WNW 2.0 mph 4.0 mph 42% 0.00 in
18:58 79.9 °F 55.4 °F 29.90 in WNW 3.0 mph 4.0 mph 43% 0.00 in
19:03 79.8 °F 56.0 °F 29.90 in WNW 4.0 mph 6.0 mph 44% 0.00 in
19:08 79.7 °F 56.5 °F 29.90 in WNW 3.0 mph 5.0 mph 45% 0.00 in
19:13 79.4 °F 55.0 °F 29.90 in WNW 2.0 mph 5.0 mph 43% 0.00 in
19:16 79.4 °F 55.6 °F 29.90 in WNW 2.0 mph 5.0 mph 44% 0.00 in
19:21 79.3 °F 56.1 °F 29.90 in WNW 2.0 mph 4.0 mph 45% 0.00 in
19:26 79.2 °F 56.7 °F 29.90 in West 1.0 mph 3.0 mph 46% 0.00 in
19:31 79.0 °F 56.5 °F 29.90 in NW 3.0 mph 5.0 mph 46% 0.00 in
19:36 78.7 °F 56.8 °F 29.90 in WNW 2.0 mph 4.0 mph 47% 0.00 in
19:41 78.7 °F 58.0 °F 29.90 in WNW 2.0 mph 3.0 mph 49% 0.00 in
19:47 78.7 °F 56.8 °F 29.90 in WNW 2.0 mph 3.0 mph 47% 0.00 in
19:52 78.7 °F 57.4 °F 29.90 in West 3.0 mph 3.0 mph 48% 0.00 in
19:57 78.7 °F 58.0 °F 29.90 in West 1.0 mph 1.0 mph 49% 0.00 in
20:02 78.5 °F 57.8 °F 29.90 in WNW 1.0 mph 2.0 mph 49% 0.00 in
20:07 78.1 °F 57.4 °F 29.90 in WNW 1.0 mph 1.0 mph 49% 0.00 in
20:12 77.8 °F 57.1 °F 29.90 in WNW 2.0 mph 2.0 mph 49% 0.00 in
20:17 77.4 °F 57.3 °F 29.90 in WNW 1.0 mph 2.0 mph 50% 0.00 in
20:22 76.9 °F 57.4 °F 29.90 in WNW 1.0 mph 2.0 mph 51% 0.00 in
20:27 76.4 °F 58.0 °F 29.90 in Calm   1.0 mph 53% 0.00 in
20:32 75.7 °F 57.4 °F 29.90 in WNW 1.0 mph 1.0 mph 53% 0.00 in
20:37 75.1 °F 57.8 °F 29.91 in Calm   1.0 mph 55% 0.00 in
20:42 74.4 °F 57.7 °F 29.91 in Calm     56% 0.00 in
20:47 73.7 °F 57.5 °F 29.91 in Calm   1.0 mph 57% 0.00 in
20:52 73.1 °F 57.5 °F 29.91 in Calm     58% 0.00 in
20:57 72.2 °F 57.1 °F 29.91 in Calm     59% 0.00 in
21:02 71.4 °F 57.7 °F 29.91 in Calm     62% 0.00 in
21:07 70.8 °F 58.5 °F 29.91 in Calm     65% 0.00 in
21:12 70.2 °F 57.9 °F 29.91 in Calm     65% 0.00 in
21:17 69.7 °F 57.4 °F 29.91 in Calm     65% 0.00 in
21:23 69.2 °F 57.4 °F 29.92 in Calm     66% 0.00 in
21:28 68.7 °F 57.3 °F 29.91 in Calm     67% 0.00 in
21:33 67.9 °F 57.8 °F 29.91 in Calm     70% 0.00 in
21:38 67.2 °F 57.9 °F 29.91 in Calm     72% 0.00 in
21:43 66.9 °F 58.0 °F 29.91 in Calm     73% 0.00 in
21:48 66.6 °F 57.7 °F 29.92 in Calm     73% 0.00 in
21:53 66.3 °F 57.8 °F 29.92 in Calm     74% 0.00 in
21:58 66.1 °F 57.6 °F 29.92 in Calm     74% 0.00 in
22:03 66.1 °F 57.6 °F 29.92 in Calm     74% 0.00 in
22:08 66.1 °F 57.6 °F 29.92 in Calm     74% 0.00 in
22:13 65.8 °F 57.7 °F 29.92 in Calm     75% 0.00 in
22:18 65.5 °F 57.4 °F 29.92 in Calm     75% 0.00 in
22:23 65.5 °F 57.4 °F 29.92 in Calm     75% 0.00 in
22:28 65.4 °F 57.3 °F 29.92 in Calm     75% 0.00 in
22:33 65.2 °F 57.1 °F 29.92 in Calm     75% 0.00 in
22:38 65.0 °F 56.5 °F 29.92 in Calm     74% 0.00 in
22:43 65.1 °F 56.6 °F 29.93 in Calm     74% 0.00 in
22:48 65.0 °F 56.5 °F 29.93 in Calm     74% 0.00 in
22:53 64.7 °F 56.6 °F 29.93 in Calm     75% 0.00 in
22:58 64.5 °F 56.8 °F 29.93 in Calm     76% 0.00 in
23:03 64.5 °F 57.1 °F 29.93 in Calm     77% 0.00 in
23:08 64.3 °F 57.7 °F 29.93 in Calm   1.0 mph 79% 0.00 in
23:13 64.3 °F 57.7 °F 29.93 in Calm     79% 0.00 in
23:18 64.1 °F 57.5 °F 29.93 in Calm     79% 0.00 in
23:23 64.0 °F 57.7 °F 29.93 in Calm     80% 0.00 in
23:28 63.8 °F 57.5 °F 29.93 in Calm     80% 0.00 in
23:33 63.7 °F 57.1 °F 29.93 in Calm     79% 0.00 in
23:38 63.6 °F 56.3 °F 29.93 in Calm     77% 0.00 in
23:43 64.0 °F 57.0 °F 29.93 in Calm   1.0 mph 78% 0.00 in
23:48 63.8 °F 56.8 °F 29.93 in Calm     78% 0.00 in
23:53 63.2 °F 56.2 °F 29.93 in Calm     78% 0.00 in
23:59 62.6 °F 56.7 °F 29.93 in Calm     81% 0.00 in
Compliments of Weather Underground